createdAt,value
2024-03-07T00:00:32.208Z,95280.00
2024-03-07T00:01:32.320Z,95278.00
2024-03-07T00:02:32.442Z,95276.00
2024-03-07T00:03:32.507Z,95277.00
2024-03-07T00:04:32.571Z,95275.00
2024-03-07T00:05:32.656Z,95275.00
2024-03-07T00:06:32.688Z,95272.00
2024-03-07T00:07:32.801Z,95272.00
2024-03-07T00:08:32.930Z,95270.00
2024-03-07T00:09:32.954Z,95268.00
2024-03-07T00:10:32.985Z,95269.00
2024-03-07T00:11:33.194Z,95267.00
2024-03-07T00:12:33.205Z,95265.00
2024-03-07T00:13:33.284Z,95264.00
2024-03-07T00:14:33.393Z,95263.00
2024-03-07T00:15:33.427Z,95264.00
2024-03-07T00:16:33.510Z,95263.00
2024-03-07T00:17:33.610Z,95263.00
2024-03-07T00:18:33.711Z,95264.00
2024-03-07T00:19:33.731Z,95266.00
2024-03-07T00:20:33.896Z,95265.00
2024-03-07T00:21:33.894Z,95265.00
2024-03-07T00:22:34.011Z,95264.00
2024-03-07T00:23:34.146Z,95262.00
2024-03-07T00:24:34.177Z,95261.00
2024-03-07T00:25:34.248Z,95263.00
2024-03-07T00:26:34.349Z,95263.00
2024-03-07T00:27:34.433Z,95261.00
2024-03-07T00:28:34.511Z,95261.00
2024-03-07T00:29:34.612Z,95260.00
2024-03-07T00:30:34.652Z,95262.00
2024-03-07T00:31:34.782Z,95260.00
2024-03-07T00:32:34.921Z,95262.00
2024-03-07T00:33:51.164Z,95260.00
2024-03-07T00:34:35.998Z,95260.00
2024-03-07T00:35:35.008Z,95260.00
2024-03-07T00:36:35.020Z,95260.00
2024-03-07T00:37:35.008Z,95263.00
2024-03-07T00:38:35.035Z,95262.00
2024-03-07T00:39:34.988Z,95259.00
2024-03-07T00:40:34.988Z,95259.00
2024-03-07T00:41:35.045Z,95260.00
2024-03-07T00:42:35.133Z,95261.00
2024-03-07T00:43:35.183Z,95262.00
2024-03-07T00:44:35.247Z,95262.00
2024-03-07T00:45:35.363Z,95261.00
2024-03-07T00:46:35.475Z,95262.00
2024-03-07T00:47:35.675Z,95259.00
2024-03-07T00:48:35.661Z,95260.00
2024-03-07T00:49:35.767Z,95259.00
2024-03-07T00:50:35.952Z,95260.00
2024-03-07T00:52:36.077Z,95258.00
2024-03-07T00:53:36.238Z,95259.00
2024-03-07T00:54:36.270Z,95258.00
2024-03-07T00:55:36.374Z,95257.00
2024-03-07T00:56:36.499Z,95256.00
2024-03-07T00:57:36.566Z,95257.00
2024-03-07T00:58:36.661Z,95252.00
2024-03-07T00:59:36.791Z,95251.00
2024-03-07T01:00:36.867Z,95251.00
2024-03-07T01:01:36.952Z,95249.00
2024-03-07T01:02:37.063Z,95248.00
2024-03-07T01:03:37.124Z,95246.00
2024-03-07T01:04:37.215Z,95243.00
2024-03-07T01:05:37.342Z,95244.00
2024-03-07T01:06:37.398Z,95243.00
2024-03-07T01:07:37.493Z,95242.00
2024-03-07T01:08:37.614Z,95242.00
2024-03-07T01:09:37.653Z,95244.00
2024-03-07T01:10:37.757Z,95243.00
2024-03-07T01:11:37.929Z,95240.00
2024-03-07T01:12:37.883Z,95240.00
2024-03-07T01:13:38.065Z,95238.00
2024-03-07T01:14:38.106Z,95238.00
2024-03-07T01:15:38.186Z,95240.00
2024-03-07T01:16:38.244Z,95238.00
2024-03-07T01:17:38.453Z,95235.00
2024-03-07T01:18:38.496Z,95235.00
2024-03-07T01:19:38.521Z,95235.00
2024-03-07T01:20:38.663Z,95235.00
2024-03-07T01:21:39.255Z,95234.00
2024-03-07T01:22:38.737Z,95233.00
2024-03-07T01:23:38.767Z,95233.00
2024-03-07T01:24:38.756Z,95234.00
2024-03-07T01:25:38.821Z,95234.00
2024-03-07T01:26:38.871Z,95232.00
2024-03-07T01:27:38.898Z,95230.00
2024-03-07T01:28:38.970Z,95233.00
2024-03-07T01:29:38.998Z,95230.00
2024-03-07T01:30:38.972Z,95227.00
2024-03-07T01:31:39.028Z,95227.00
2024-03-07T01:32:39.134Z,95228.00
2024-03-07T01:33:39.177Z,95226.00
2024-03-07T01:34:39.162Z,95223.00
2024-03-07T01:35:39.212Z,95223.00
2024-03-07T01:36:39.320Z,95222.00
2024-03-07T01:37:39.270Z,95221.00
2024-03-07T01:38:39.372Z,95220.00
2024-03-07T01:39:39.373Z,95221.00
2024-03-07T01:40:39.392Z,95220.00
2024-03-07T01:41:39.498Z,95221.00
2024-03-07T01:42:39.520Z,95222.00
2024-03-07T01:43:39.587Z,95222.00
2024-03-07T01:44:40.565Z,95220.00
2024-03-07T01:45:39.640Z,95217.00
2024-03-07T01:46:39.725Z,95216.00
2024-03-07T01:48:08.897Z,95219.00
2024-03-07T01:49:08.830Z,95219.00
2024-03-07T01:50:08.825Z,95217.00
2024-03-07T01:51:08.824Z,95217.00
2024-03-07T01:52:08.837Z,95217.00
2024-03-07T01:53:08.806Z,95215.00
2024-03-07T01:54:08.808Z,95213.00
2024-03-07T01:55:08.802Z,95213.00
2024-03-07T01:56:08.827Z,95210.00
2024-03-07T01:57:08.819Z,95208.00
2024-03-07T01:58:08.836Z,95208.00
2024-03-07T01:59:08.954Z,95208.00
2024-03-07T02:00:08.906Z,95208.00
2024-03-07T02:01:08.835Z,95207.00
2024-03-07T02:02:08.856Z,95207.00
2024-03-07T02:03:08.826Z,95207.00
2024-03-07T02:04:08.822Z,95207.00
2024-03-07T02:05:08.858Z,95207.00
2024-03-07T02:06:08.816Z,95208.00
2024-03-07T02:07:08.834Z,95207.00
2024-03-07T02:08:08.809Z,95208.00
2024-03-07T02:09:08.807Z,95208.00
2024-03-07T02:10:08.856Z,95209.00
2024-03-07T02:11:08.853Z,95205.00
2024-03-07T02:12:08.885Z,95206.00
2024-03-07T02:13:08.831Z,95207.00
2024-03-07T02:14:08.878Z,95206.00
2024-03-07T02:15:08.825Z,95205.00
2024-03-07T02:16:08.830Z,95204.00
2024-03-07T02:17:08.848Z,95203.00
2024-03-07T02:18:08.893Z,95202.00
2024-03-07T02:19:08.845Z,95201.00
2024-03-07T02:20:08.888Z,95200.00
2024-03-07T02:21:08.871Z,95199.00
2024-03-07T02:22:08.842Z,95201.00
2024-03-07T02:23:08.865Z,95199.00
2024-03-07T02:24:08.854Z,95197.00
2024-03-07T02:25:08.856Z,95198.00
2024-03-07T02:26:08.867Z,95198.00
2024-03-07T02:27:08.884Z,95198.00
2024-03-07T02:28:08.903Z,95197.00
2024-03-07T02:29:08.972Z,95197.00
2024-03-07T02:30:09.092Z,95197.00
2024-03-07T02:31:09.179Z,95197.00
2024-03-07T02:32:09.218Z,95197.00
2024-03-07T02:33:09.504Z,95196.00
2024-03-07T02:34:09.360Z,95197.00
2024-03-07T02:35:09.467Z,95194.00
2024-03-07T02:36:09.546Z,95194.00
2024-03-07T02:37:09.662Z,95192.00
2024-03-07T02:38:09.920Z,95193.00
2024-03-07T02:39:09.808Z,95191.00
2024-03-07T02:40:09.885Z,95193.00
2024-03-07T02:41:09.923Z,95191.00
2024-03-07T02:42:10.024Z,95191.00
2024-03-07T02:43:10.118Z,95192.00
2024-03-07T02:44:10.250Z,95191.00
2024-03-07T02:45:10.273Z,95190.00
2024-03-07T02:46:10.365Z,95192.00
2024-03-07T02:47:10.496Z,95188.00
2024-03-07T02:48:11.247Z,95186.00
2024-03-07T02:49:10.739Z,95186.00
2024-03-07T02:50:10.744Z,95187.00
2024-03-07T02:51:10.761Z,95187.00
2024-03-07T02:52:10.870Z,95184.00
2024-03-07T02:53:10.985Z,95184.00
2024-03-07T02:54:11.087Z,95186.00
2024-03-07T02:55:11.131Z,95182.00
2024-03-07T02:56:11.274Z,95184.00
2024-03-07T02:57:11.329Z,95183.00
2024-03-07T02:58:11.427Z,95184.00
2024-03-07T02:59:11.484Z,95181.00
2024-03-07T03:00:11.561Z,95182.00
2024-03-07T03:01:11.724Z,95180.00
2024-03-07T03:02:11.815Z,95179.00
2024-03-07T03:03:11.855Z,95178.00
2024-03-07T03:04:11.967Z,95178.00
2024-03-07T03:05:12.086Z,95178.00
2024-03-07T03:06:12.133Z,95177.00
2024-03-07T03:07:12.205Z,95176.00
2024-03-07T03:08:12.365Z,95174.00
2024-03-07T03:09:12.399Z,95171.00
2024-03-07T03:10:12.524Z,95172.00
2024-03-07T03:11:12.634Z,95170.00
2024-03-07T03:12:12.720Z,95168.00
2024-03-07T03:13:12.765Z,95169.00
2024-03-07T03:14:12.927Z,95168.00
2024-03-07T03:15:12.944Z,95170.00
2024-03-07T03:16:13.061Z,95169.00
2024-03-07T03:17:13.141Z,95170.00
2024-03-07T03:18:13.344Z,95170.00
2024-03-07T03:19:13.353Z,95169.00
2024-03-07T03:20:13.482Z,95168.00
2024-03-07T03:21:13.532Z,95169.00
2024-03-07T03:22:13.647Z,95170.00
2024-03-07T03:23:20.016Z,95170.00
2024-03-07T03:24:14.752Z,95168.00
2024-03-07T03:25:13.768Z,95169.00
2024-03-07T03:26:13.726Z,95169.00
2024-03-07T03:27:13.762Z,95168.00
2024-03-07T03:28:13.748Z,95168.00
2024-03-07T03:29:13.824Z,95168.00
2024-03-07T03:30:13.774Z,95168.00
2024-03-07T03:31:13.787Z,95170.00
2024-03-07T03:32:13.824Z,95168.00
2024-03-07T03:33:13.843Z,95169.00
2024-03-07T03:34:13.827Z,95167.00
2024-03-07T03:35:13.914Z,95168.00
2024-03-07T03:36:13.985Z,95167.00
2024-03-07T03:37:14.069Z,95167.00
2024-03-07T03:38:14.229Z,95167.00
2024-03-07T03:39:14.537Z,95165.00
2024-03-07T03:40:14.316Z,95166.00
2024-03-07T03:41:14.367Z,95164.00
2024-03-07T03:42:14.392Z,95163.00
2024-03-07T03:43:14.446Z,95163.00
2024-03-07T03:44:14.518Z,95164.00
2024-03-07T03:45:15.509Z,95162.00
2024-03-07T03:46:14.565Z,95163.00
2024-03-07T03:47:14.623Z,95162.00
2024-03-07T03:48:14.904Z,95161.00
2024-03-07T03:49:14.687Z,95161.00
2024-03-07T03:50:14.740Z,95159.00
2024-03-07T03:51:14.752Z,95161.00
2024-03-07T03:52:14.848Z,95158.00
2024-03-07T03:53:14.961Z,95158.00
2024-03-07T03:54:15.019Z,95158.00
2024-03-07T03:55:15.122Z,95160.00
2024-03-07T03:56:15.249Z,95156.00
2024-03-07T03:57:15.330Z,95157.00
2024-03-07T03:58:15.430Z,95158.00
2024-03-07T03:59:15.644Z,95158.00
2024-03-07T04:00:15.686Z,95158.00
2024-03-07T04:01:16.016Z,95158.00
2024-03-07T04:02:15.879Z,95153.00
2024-03-07T04:03:15.957Z,95155.00
2024-03-07T04:04:16.039Z,95154.00
2024-03-07T04:05:16.160Z,95153.00
2024-03-07T04:06:16.232Z,95154.00
2024-03-07T04:07:16.310Z,95153.00
2024-03-07T04:08:16.505Z,95153.00
2024-03-07T04:09:16.514Z,95153.00
2024-03-07T04:10:16.614Z,95152.00
2024-03-07T04:11:16.769Z,95151.00
2024-03-07T04:12:16.876Z,95151.00
2024-03-07T04:13:16.895Z,95149.00
2024-03-07T04:14:17.047Z,95151.00
2024-03-07T04:15:17.092Z,95148.00
2024-03-07T04:16:17.195Z,95149.00
2024-03-07T04:17:17.346Z,95148.00
2024-03-07T04:18:17.578Z,95147.00
2024-03-07T04:19:17.534Z,95145.00
2024-03-07T04:20:17.644Z,95144.00
2024-03-07T04:21:17.735Z,95146.00
2024-03-07T04:22:17.818Z,95145.00
2024-03-07T04:23:17.952Z,95145.00
2024-03-07T04:24:18.021Z,95146.00
2024-03-07T04:25:18.148Z,95144.00
2024-03-07T04:26:18.244Z,95143.00
2024-03-07T04:27:18.346Z,95145.00
2024-03-07T04:28:18.422Z,95145.00
2024-03-07T04:29:18.562Z,95144.00
2024-03-07T04:30:25.796Z,95145.00
2024-03-07T04:31:33.509Z,95145.00
2024-03-07T04:32:33.586Z,95144.00
2024-03-07T04:33:33.678Z,95144.00
2024-03-07T04:34:33.507Z,95144.00
2024-03-07T04:35:33.529Z,95143.00
2024-03-07T04:36:33.519Z,95141.00
2024-03-07T04:37:33.532Z,95138.00
2024-03-07T04:38:33.576Z,95139.00
2024-03-07T04:39:33.563Z,95139.00
2024-03-07T04:40:33.505Z,95138.00
2024-03-07T04:41:33.617Z,95137.00
2024-03-07T04:42:33.555Z,95139.00
2024-03-07T04:43:33.542Z,95137.00
2024-03-07T04:44:33.610Z,95137.00
2024-03-07T04:45:33.557Z,95137.00
2024-03-07T04:46:33.552Z,95138.00
2024-03-07T04:47:33.674Z,95137.00
2024-03-07T04:48:33.669Z,95140.00
2024-03-07T04:49:33.556Z,95138.00
2024-03-07T04:50:33.618Z,95139.00
2024-03-07T04:51:33.556Z,95138.00
2024-03-07T04:52:33.564Z,95138.00
2024-03-07T04:53:33.586Z,95139.00
2024-03-07T04:54:33.556Z,95137.00
2024-03-07T04:55:33.543Z,95137.00
2024-03-07T04:56:33.596Z,95138.00
2024-03-07T04:57:33.544Z,95140.00
2024-03-07T04:58:33.550Z,95139.00
2024-03-07T04:59:33.634Z,95139.00
2024-03-07T05:00:33.769Z,95137.00
2024-03-07T05:01:33.827Z,95136.00
2024-03-07T05:02:33.921Z,95137.00
2024-03-07T05:03:34.031Z,95138.00
2024-03-07T05:04:34.139Z,95143.00
2024-03-07T05:05:34.320Z,95142.00
2024-03-07T05:06:34.313Z,95140.00
2024-03-07T05:07:34.423Z,95143.00
2024-03-07T05:08:34.629Z,95144.00
2024-03-07T05:09:34.607Z,95143.00
2024-03-07T05:10:34.729Z,95145.00
2024-03-07T05:11:34.873Z,95145.00
2024-03-07T05:12:34.912Z,95144.00
2024-03-07T05:13:35.047Z,95145.00
2024-03-07T05:14:35.166Z,95144.00
2024-03-07T05:15:37.087Z,95144.00
2024-03-07T05:16:35.243Z,95145.00
2024-03-07T05:17:35.289Z,95144.00
2024-03-07T05:18:35.268Z,95145.00
2024-03-07T05:19:35.250Z,95142.00
2024-03-07T05:20:35.253Z,95145.00
2024-03-07T05:21:35.254Z,95141.00
2024-03-07T05:22:35.215Z,95144.00
2024-03-07T05:23:35.313Z,95143.00
2024-03-07T05:24:35.558Z,95142.00
2024-03-07T05:25:35.262Z,95142.00
2024-03-07T05:26:35.300Z,95143.00
2024-03-07T05:27:35.240Z,95142.00
2024-03-07T05:28:35.260Z,95142.00
2024-03-07T05:29:35.304Z,95143.00
2024-03-07T05:30:35.249Z,95143.00
2024-03-07T05:31:35.272Z,95142.00
2024-03-07T05:32:35.334Z,95142.00
2024-03-07T05:33:35.282Z,95142.00
2024-03-07T05:34:35.251Z,95141.00
2024-03-07T05:35:35.321Z,95140.00
2024-03-07T05:36:35.253Z,95142.00
2024-03-07T05:37:35.291Z,95142.00
2024-03-07T05:38:35.317Z,95143.00
2024-03-07T05:39:35.283Z,95143.00
2024-03-07T05:40:35.289Z,95143.00
2024-03-07T05:41:35.310Z,95141.00
2024-03-07T05:42:35.250Z,95141.00
2024-03-07T05:43:35.259Z,95143.00
2024-03-07T05:44:35.405Z,95141.00
2024-03-07T05:45:35.284Z,95144.00
2024-03-07T05:46:35.288Z,95142.00
2024-03-07T05:47:35.342Z,95144.00
2024-03-07T05:48:35.327Z,95144.00
2024-03-07T05:49:35.312Z,95145.00
2024-03-07T05:50:35.323Z,95144.00
2024-03-07T05:51:35.288Z,95146.00
2024-03-07T05:52:35.392Z,95146.00
2024-03-07T05:53:35.560Z,95147.00
2024-03-07T05:54:35.609Z,95144.00
2024-03-07T05:55:35.700Z,95149.00
2024-03-07T05:56:35.852Z,95148.00
2024-03-07T05:57:35.853Z,95146.00
2024-03-07T05:58:35.957Z,95147.00
2024-03-07T05:59:36.118Z,95146.00
2024-03-07T06:00:58.760Z,95149.00
2024-03-07T06:01:36.160Z,95147.00
2024-03-07T06:02:36.206Z,95145.00
2024-03-07T06:03:36.204Z,95148.00
2024-03-07T06:04:36.160Z,95145.00
2024-03-07T06:05:36.248Z,95147.00
2024-03-07T06:06:36.166Z,95144.00
2024-03-07T06:07:36.130Z,95145.00
2024-03-07T06:08:36.175Z,95146.00
2024-03-07T06:09:36.180Z,95148.00
2024-03-07T06:10:36.280Z,95147.00
2024-03-07T06:11:36.329Z,95149.00
2024-03-07T06:12:36.246Z,95147.00
2024-03-07T06:13:36.185Z,95148.00
2024-03-07T06:14:36.274Z,95149.00
2024-03-07T06:15:36.149Z,95149.00
2024-03-07T06:16:36.177Z,95148.00
2024-03-07T06:17:36.219Z,95150.00
2024-03-07T06:18:36.239Z,95151.00
2024-03-07T06:19:36.185Z,95150.00
2024-03-07T06:20:36.262Z,95150.00
2024-03-07T06:21:36.201Z,95151.00
2024-03-07T06:22:36.210Z,95152.00
2024-03-07T06:23:36.390Z,95152.00
2024-03-07T06:24:36.407Z,95154.00
2024-03-07T06:25:36.459Z,95150.00
2024-03-07T06:26:36.696Z,95152.00
2024-03-07T06:27:36.684Z,95154.00
2024-03-07T06:28:36.755Z,95151.00
2024-03-07T06:29:36.901Z,95154.00
2024-03-07T06:30:36.952Z,95150.00
2024-03-07T06:31:37.040Z,95150.00
2024-03-07T06:32:37.234Z,95149.00
2024-03-07T06:33:37.333Z,95149.00
2024-03-07T06:34:37.687Z,95149.00
2024-03-07T06:35:37.499Z,95147.00
2024-03-07T06:36:37.571Z,95149.00
2024-03-07T06:37:37.650Z,95150.00
2024-03-07T06:38:37.829Z,95150.00
2024-03-07T06:39:38.170Z,95149.00
2024-03-07T06:40:37.944Z,95148.00
2024-03-07T06:41:38.087Z,95148.00
2024-03-07T06:42:38.151Z,95150.00
2024-03-07T06:43:38.271Z,95150.00
2024-03-07T06:44:38.735Z,95152.00
2024-03-07T06:46:00.963Z,95149.00
2024-03-07T06:46:38.469Z,95150.00
2024-03-07T06:47:38.798Z,95152.00
2024-03-07T06:48:38.565Z,95151.00
2024-03-07T06:49:38.745Z,95152.00
2024-03-07T06:50:39.214Z,95151.00
2024-03-07T06:51:38.494Z,95151.00
2024-03-07T06:52:40.115Z,95154.00
2024-03-07T06:53:38.531Z,95154.00
2024-03-07T06:54:39.665Z,95154.00
2024-03-07T06:55:38.528Z,95155.00
2024-03-07T06:56:38.525Z,95154.00
2024-03-07T06:57:38.478Z,95156.00
2024-03-07T06:58:38.470Z,95155.00
2024-03-07T06:59:38.525Z,95156.00
2024-03-07T07:00:39.351Z,95156.00
2024-03-07T07:01:38.514Z,95153.00
2024-03-07T07:02:38.584Z,95154.00
2024-03-07T07:03:38.509Z,95156.00
2024-03-07T07:04:38.532Z,95155.00
2024-03-07T07:05:38.791Z,95154.00
2024-03-07T07:06:38.640Z,95153.00
2024-03-07T07:07:38.710Z,95152.00
2024-03-07T07:08:38.835Z,95155.00
2024-03-07T07:09:38.882Z,95154.00
2024-03-07T07:10:39.238Z,95154.00
2024-03-07T07:11:39.206Z,95153.00
2024-03-07T07:12:39.114Z,95150.00
2024-03-07T07:13:39.203Z,95152.00
2024-03-07T07:14:39.310Z,95150.00
2024-03-07T07:15:39.722Z,95149.00
2024-03-07T07:16:39.380Z,95150.00
2024-03-07T07:17:39.570Z,95150.00
2024-03-07T07:18:39.778Z,95151.00
2024-03-07T07:19:39.613Z,95150.00
2024-03-07T07:20:39.722Z,95149.00
2024-03-07T07:21:39.796Z,95147.00
2024-03-07T07:22:39.874Z,95148.00
2024-03-07T07:23:40.008Z,95147.00
2024-03-07T07:24:39.979Z,95146.00
2024-03-07T07:25:40.097Z,95149.00
2024-03-07T07:26:40.173Z,95146.00
2024-03-07T07:27:40.224Z,95148.00
2024-03-07T07:28:40.318Z,95148.00
2024-03-07T07:29:40.414Z,95147.00
2024-03-07T07:30:41.890Z,95147.00
2024-03-07T07:31:40.449Z,95146.00
2024-03-07T07:32:40.482Z,95145.00
2024-03-07T07:33:40.536Z,95142.00
2024-03-07T07:34:40.461Z,95143.00
2024-03-07T07:35:40.745Z,95145.00
2024-03-07T07:36:40.494Z,95142.00
2024-03-07T07:37:40.473Z,95143.00
2024-03-07T07:38:40.496Z,95139.00
2024-03-07T07:39:40.467Z,95140.00
2024-03-07T07:40:40.500Z,95141.00
2024-03-07T07:41:40.510Z,95139.00
2024-03-07T07:42:40.480Z,95140.00
2024-03-07T07:44:40.512Z,95140.00
2024-03-07T07:45:40.494Z,95140.00
2024-03-07T07:46:40.499Z,95140.00
2024-03-07T07:47:40.554Z,95137.00
2024-03-07T07:48:40.609Z,95136.00
2024-03-07T07:49:40.502Z,95135.00
2024-03-07T07:50:40.767Z,95137.00
2024-03-07T07:51:40.493Z,95137.00
2024-03-07T07:52:40.508Z,95133.00
2024-03-07T07:53:40.525Z,95135.00
2024-03-07T07:54:40.508Z,95135.00
2024-03-07T07:55:40.507Z,95134.00
2024-03-07T07:56:40.535Z,95132.00
2024-03-07T07:57:40.485Z,95133.00
2024-03-07T07:58:40.526Z,95133.00
2024-03-07T07:59:40.581Z,95133.00
2024-03-07T08:00:40.532Z,95133.00
2024-03-07T08:01:40.519Z,95134.00
2024-03-07T08:02:40.567Z,95134.00
2024-03-07T08:03:40.528Z,95133.00
2024-03-07T08:04:40.514Z,95133.00
2024-03-07T08:05:40.592Z,95132.00
2024-03-07T08:06:40.512Z,95133.00
2024-03-07T08:07:40.548Z,95130.00
2024-03-07T08:08:40.584Z,95130.00
2024-03-07T08:09:40.525Z,95130.00
2024-03-07T08:10:42.347Z,95129.00
2024-03-07T08:11:40.638Z,95131.00
2024-03-07T08:12:40.566Z,95132.00
2024-03-07T08:13:40.560Z,95131.00
2024-03-07T08:14:40.606Z,95131.00
2024-03-07T08:15:40.588Z,95132.00
2024-03-07T08:16:40.601Z,95134.00
2024-03-07T08:17:40.675Z,95131.00
2024-03-07T08:18:40.657Z,95130.00
2024-03-07T08:19:40.569Z,95131.00
2024-03-07T08:20:41.727Z,95128.00
2024-03-07T08:21:40.625Z,95129.00
2024-03-07T08:22:40.631Z,95128.00
2024-03-07T08:23:40.628Z,95129.00
2024-03-07T08:24:40.609Z,95129.00
2024-03-07T08:25:40.998Z,95127.00
2024-03-07T08:26:40.650Z,95126.00
2024-03-07T08:27:40.624Z,95128.00
2024-03-07T08:28:40.597Z,95125.00
2024-03-07T08:29:40.694Z,95124.00
2024-03-07T08:30:40.644Z,95124.00
2024-03-07T08:31:40.762Z,95127.00
2024-03-07T08:32:40.672Z,95124.00
2024-03-07T08:33:40.735Z,95121.00
2024-03-07T08:34:41.244Z,95120.00
2024-03-07T08:35:40.756Z,95118.00
2024-03-07T08:36:41.255Z,95116.00
2024-03-07T08:37:40.804Z,95115.00
2024-03-07T08:38:40.873Z,95113.00
2024-03-07T08:39:40.970Z,95111.00
2024-03-07T08:40:41.083Z,95111.00
2024-03-07T08:41:41.294Z,95111.00
2024-03-07T08:42:41.257Z,95109.00
2024-03-07T08:43:41.320Z,95111.00
2024-03-07T08:44:41.473Z,95111.00
2024-03-07T08:45:41.469Z,95110.00
2024-03-07T08:46:41.583Z,95110.00
2024-03-07T08:47:41.800Z,95108.00
2024-03-07T08:48:41.907Z,95110.00
2024-03-07T08:49:41.948Z,95112.00
2024-03-07T08:50:42.031Z,95112.00
2024-03-07T08:51:42.739Z,95110.00
2024-03-07T08:52:42.152Z,95108.00
2024-03-07T08:53:42.275Z,95110.00
2024-03-07T08:54:42.344Z,95108.00
2024-03-07T08:55:42.431Z,95105.00
2024-03-07T08:56:42.599Z,95105.00
2024-03-07T08:57:42.641Z,95105.00
2024-03-07T08:58:42.729Z,95103.00
2024-03-07T08:59:42.845Z,95103.00
2024-03-07T09:00:42.942Z,95104.00
2024-03-07T09:01:43.086Z,95104.00
2024-03-07T09:02:43.194Z,95105.00
2024-03-07T09:03:43.194Z,95102.00
2024-03-07T09:04:43.307Z,95104.00
2024-03-07T09:05:43.703Z,95102.00
2024-03-07T09:06:43.496Z,95103.00
2024-03-07T09:07:43.577Z,95101.00
2024-03-07T09:08:43.710Z,95102.00
2024-03-07T09:09:43.788Z,95100.00
2024-03-07T09:10:44.119Z,95099.00
2024-03-07T09:11:44.016Z,95099.00
2024-03-07T09:12:44.047Z,95101.00
2024-03-07T09:13:44.114Z,95098.00
2024-03-07T09:14:47.176Z,95097.00
2024-03-07T09:15:44.229Z,95098.00
2024-03-07T09:16:44.215Z,95095.00
2024-03-07T09:17:44.269Z,95094.00
2024-03-07T09:18:44.304Z,95095.00
2024-03-07T09:19:44.225Z,95092.00
2024-03-07T09:20:44.263Z,95095.00
2024-03-07T09:21:44.219Z,95093.00
2024-03-07T09:22:44.238Z,95091.00
2024-03-07T09:23:44.288Z,95084.00
2024-03-07T09:24:44.275Z,95084.00
2024-03-07T09:25:44.274Z,95082.00
2024-03-07T09:26:44.396Z,95085.00
2024-03-07T09:27:44.261Z,95084.00
2024-03-07T09:28:44.221Z,95085.00
2024-03-07T09:29:44.289Z,95081.00
2024-03-07T09:30:44.279Z,95081.00
2024-03-07T09:31:44.765Z,95079.00
2024-03-07T09:32:44.766Z,95077.00
2024-03-07T09:33:44.343Z,95076.00
2024-03-07T09:34:44.368Z,95075.00
2024-03-07T09:35:44.317Z,95073.00
2024-03-07T09:36:44.826Z,95070.00
2024-03-07T09:37:44.794Z,95071.00
2024-03-07T09:38:44.342Z,95068.00
2024-03-07T09:39:44.348Z,95068.00
2024-03-07T09:40:44.332Z,95069.00
2024-03-07T09:41:44.812Z,95067.00
2024-03-07T09:42:44.306Z,95066.00
2024-03-07T09:43:44.270Z,95064.00
2024-03-07T09:44:44.322Z,95067.00
2024-03-07T09:45:46.697Z,95064.00
2024-03-07T09:46:44.760Z,95064.00
2024-03-07T09:47:44.380Z,95063.00
2024-03-07T09:48:44.353Z,95063.00
2024-03-07T09:49:44.281Z,95065.00
2024-03-07T09:50:44.365Z,95063.00
2024-03-07T09:51:44.806Z,95061.00
2024-03-07T09:52:44.298Z,95068.00
2024-03-07T09:53:44.307Z,95067.00
2024-03-07T09:54:44.329Z,95067.00
2024-03-07T09:55:44.331Z,95068.00
2024-03-07T09:56:44.840Z,95065.00
2024-03-07T09:57:44.346Z,95066.00
2024-03-07T09:58:44.342Z,95065.00
2024-03-07T09:59:44.371Z,95063.00
2024-03-07T10:00:44.302Z,95063.00
2024-03-07T10:01:44.753Z,95064.00
2024-03-07T10:02:45.330Z,95062.00
2024-03-07T10:03:44.398Z,95061.00
2024-03-07T10:04:44.301Z,95057.00
2024-03-07T10:05:44.422Z,95057.00
2024-03-07T10:06:44.802Z,95058.00
2024-03-07T10:07:44.558Z,95058.00
2024-03-07T10:08:44.705Z,95057.00
2024-03-07T10:09:44.772Z,95055.00
2024-03-07T10:10:44.931Z,95053.00
2024-03-07T10:11:47.190Z,95053.00
2024-03-07T10:12:44.995Z,95051.00
2024-03-07T10:13:45.052Z,95051.00
2024-03-07T10:14:45.112Z,95050.00
2024-03-07T10:15:45.129Z,95049.00
2024-03-07T10:16:45.303Z,95048.00
2024-03-07T10:17:47.202Z,95048.00
2024-03-07T10:18:45.516Z,95048.00
2024-03-07T10:19:45.429Z,95041.00
2024-03-07T10:20:45.595Z,95045.00
2024-03-07T10:21:45.541Z,95042.00
2024-03-07T10:22:45.581Z,95043.00
2024-03-07T10:23:45.682Z,95039.00
2024-03-07T10:24:45.686Z,95039.00
2024-03-07T10:25:45.686Z,95039.00
2024-03-07T10:26:45.869Z,95039.00
2024-03-07T10:27:45.791Z,95036.00
2024-03-07T10:28:45.822Z,95032.00
2024-03-07T10:29:45.893Z,95035.00
2024-03-07T10:30:45.972Z,95033.00
2024-03-07T10:31:53.533Z,95033.00
2024-03-07T10:32:47.081Z,95031.00
2024-03-07T10:33:46.148Z,95029.00
2024-03-07T10:34:46.038Z,95030.00
2024-03-07T10:35:46.067Z,95028.00
2024-03-07T10:36:46.080Z,95030.00
2024-03-07T10:37:46.037Z,95029.00
2024-03-07T10:38:46.075Z,95025.00
2024-03-07T10:39:46.038Z,95025.00
2024-03-07T10:40:46.073Z,95024.00
2024-03-07T10:41:46.370Z,95023.00
2024-03-07T10:42:46.029Z,95023.00
2024-03-07T10:43:46.082Z,95022.00
2024-03-07T10:44:46.134Z,95019.00
2024-03-07T10:45:46.061Z,95017.00
2024-03-07T10:46:46.353Z,95018.00
2024-03-07T10:47:46.169Z,95018.00
2024-03-07T10:48:46.159Z,95020.00
2024-03-07T10:49:46.149Z,95016.00
2024-03-07T10:50:46.260Z,95018.00
2024-03-07T10:51:46.221Z,95016.00
2024-03-07T10:52:46.260Z,95010.00
2024-03-07T10:53:46.337Z,95010.00
2024-03-07T10:54:49.052Z,95011.00
2024-03-07T10:55:46.367Z,95011.00
2024-03-07T10:56:46.388Z,95008.00
2024-03-07T10:57:47.321Z,95008.00
2024-03-07T10:58:46.339Z,95008.00
2024-03-07T10:59:46.493Z,95007.00
2024-03-07T11:00:46.408Z,95007.00
2024-03-07T11:01:46.829Z,95008.00
2024-03-07T11:02:46.376Z,95006.00
2024-03-07T11:03:46.374Z,95006.00
2024-03-07T11:04:46.390Z,95007.00
2024-03-07T11:05:46.384Z,95006.00
2024-03-07T11:06:46.400Z,95005.00
2024-03-07T11:07:46.400Z,95003.00
2024-03-07T11:08:46.460Z,95004.00
2024-03-07T11:09:46.413Z,95001.00
2024-03-07T11:10:46.441Z,95002.00
2024-03-07T11:11:46.908Z,94999.00
2024-03-07T11:12:46.395Z,94999.00
2024-03-07T11:13:46.441Z,94998.00
2024-03-07T11:14:46.421Z,94999.00
2024-03-07T11:15:46.423Z,94996.00
2024-03-07T11:16:46.829Z,94995.00
2024-03-07T11:17:46.431Z,94993.00
2024-03-07T11:18:46.408Z,94995.00
2024-03-07T11:19:46.447Z,94995.00
2024-03-07T11:20:46.474Z,94993.00
2024-03-07T11:21:46.454Z,94992.00
2024-03-07T11:22:46.537Z,94991.00
2024-03-07T11:23:46.471Z,94991.00
2024-03-07T11:24:46.726Z,94991.00
2024-03-07T11:25:46.547Z,94993.00
2024-03-07T11:26:46.759Z,94990.00
2024-03-07T11:27:46.707Z,94989.00
2024-03-07T11:28:46.759Z,94988.00
2024-03-07T11:29:46.838Z,94989.00
2024-03-07T11:30:46.887Z,94991.00
2024-03-07T11:31:47.363Z,94988.00
2024-03-07T11:32:48.129Z,94987.00
2024-03-07T11:33:47.287Z,94985.00
2024-03-07T11:34:47.186Z,94983.00
2024-03-07T11:35:47.261Z,94983.00
2024-03-07T11:36:47.333Z,94980.00
2024-03-07T11:37:47.826Z,94978.00
2024-03-07T11:38:47.488Z,94978.00
2024-03-07T11:39:47.573Z,94975.00
2024-03-07T11:40:47.631Z,94973.00
2024-03-07T11:41:47.859Z,94970.00
2024-03-07T11:42:47.766Z,94970.00
2024-03-07T11:43:47.935Z,94967.00
2024-03-07T11:44:47.959Z,94964.00
2024-03-07T11:45:48.610Z,94964.00
2024-03-07T11:46:48.359Z,94964.00
2024-03-07T11:47:48.236Z,94959.00